sensor_id;sensor_type;location;lat;lon;timestamp;P1;durP1;ratioP1;P2;durP2;ratioP2
5774;SDS011;2913;51.120;6.772;2023-10-13T00:00:32;15.07;;;7.68;;
5774;SDS011;2913;51.120;6.772;2023-10-13T00:03:02;24.05;;;8.52;;
5774;SDS011;2913;51.120;6.772;2023-10-13T00:05:32;21.33;;;7.43;;
5774;SDS011;2913;51.120;6.772;2023-10-13T00:07:58;17.95;;;7.43;;
5774;SDS011;2913;51.120;6.772;2023-10-13T00:10:30;17.25;;;7.38;;
5774;SDS011;2913;51.120;6.772;2023-10-13T00:12:57;20.73;;;7.03;;
5774;SDS011;2913;51.120;6.772;2023-10-13T00:15:43;16.88;;;7.20;;
5774;SDS011;2913;51.120;6.772;2023-10-13T00:18:22;19.65;;;7.00;;
5774;SDS011;2913;51.120;6.772;2023-10-13T00:20:52;20.90;;;7.85;;
5774;SDS011;2913;51.120;6.772;2023-10-13T00:23:21;20.63;;;7.13;;
5774;SDS011;2913;51.120;6.772;2023-10-13T00:25:48;15.07;;;6.97;;
5774;SDS011;2913;51.120;6.772;2023-10-13T00:28:18;16.95;;;7.18;;
5774;SDS011;2913;51.120;6.772;2023-10-13T00:30:51;19.60;;;7.45;;
5774;SDS011;2913;51.120;6.772;2023-10-13T00:33:26;24.08;;;8.35;;
5774;SDS011;2913;51.120;6.772;2023-10-13T00:35:52;15.90;;;7.10;;
5774;SDS011;2913;51.120;6.772;2023-10-13T00:38:18;13.48;;;6.90;;
5774;SDS011;2913;51.120;6.772;2023-10-13T00:40:44;31.30;;;12.35;;
5774;SDS011;2913;51.120;6.772;2023-10-13T00:43:20;12.38;;;6.97;;
5774;SDS011;2913;51.120;6.772;2023-10-13T00:45:48;16.08;;;7.25;;
5774;SDS011;2913;51.120;6.772;2023-10-13T00:48:28;15.35;;;7.45;;
5774;SDS011;2913;51.120;6.772;2023-10-13T00:51:02;15.52;;;6.38;;
5774;SDS011;2913;51.120;6.772;2023-10-13T00:53:34;24.83;;;7.20;;
5774;SDS011;2913;51.120;6.772;2023-10-13T00:56:09;24.23;;;7.85;;
5774;SDS011;2913;51.120;6.772;2023-10-13T00:58:45;19.02;;;7.75;;
5774;SDS011;2913;51.120;6.772;2023-10-13T01:01:18;13.15;;;7.30;;
5774;SDS011;2913;51.120;6.772;2023-10-13T01:03:47;12.98;;;6.90;;
5774;SDS011;2913;51.120;6.772;2023-10-13T01:06:28;12.05;;;6.50;;
5774;SDS011;2913;51.120;6.772;2023-10-13T01:08:58;14.23;;;8.30;;
5774;SDS011;2913;51.120;6.772;2023-10-13T01:11:37;21.17;;;7.13;;
5774;SDS011;2913;51.120;6.772;2023-10-13T01:14:08;16.15;;;7.28;;
5774;SDS011;2913;51.120;6.772;2023-10-13T01:16:37;18.08;;;7.50;;
5774;SDS011;2913;51.120;6.772;2023-10-13T01:19:09;21.10;;;7.60;;
5774;SDS011;2913;51.120;6.772;2023-10-13T01:21:37;17.02;;;7.93;;
5774;SDS011;2913;51.120;6.772;2023-10-13T01:24:06;15.65;;;8.10;;
5774;SDS011;2913;51.120;6.772;2023-10-13T01:26:33;17.45;;;7.25;;
5774;SDS011;2913;51.120;6.772;2023-10-13T01:29:03;27.67;;;8.60;;
5774;SDS011;2913;51.120;6.772;2023-10-13T01:31:39;24.55;;;7.65;;
5774;SDS011;2913;51.120;6.772;2023-10-13T01:34:11;23.33;;;8.88;;
5774;SDS011;2913;51.120;6.772;2023-10-13T01:36:37;19.02;;;7.72;;
5774;SDS011;2913;51.120;6.772;2023-10-13T01:39:05;16.77;;;8.13;;
5774;SDS011;2913;51.120;6.772;2023-10-13T01:41:34;21.25;;;8.07;;
5774;SDS011;2913;51.120;6.772;2023-10-13T01:44:04;17.83;;;8.18;;
5774;SDS011;2913;51.120;6.772;2023-10-13T01:46:33;15.52;;;8.23;;
5774;SDS011;2913;51.120;6.772;2023-10-13T01:49:04;19.95;;;9.35;;
5774;SDS011;2913;51.120;6.772;2023-10-13T01:51:29;16.80;;;8.07;;
5774;SDS011;2913;51.120;6.772;2023-10-13T01:53:55;24.98;;;8.90;;
5774;SDS011;2913;51.120;6.772;2023-10-13T01:56:24;23.05;;;8.95;;
5774;SDS011;2913;51.120;6.772;2023-10-13T01:58:49;18.83;;;8.68;;
5774;SDS011;2913;51.120;6.772;2023-10-13T02:01:15;18.95;;;8.80;;
5774;SDS011;2913;51.120;6.772;2023-10-13T02:03:55;20.20;;;9.07;;
5774;SDS011;2913;51.120;6.772;2023-10-13T02:06:30;17.30;;;8.93;;
5774;SDS011;2913;51.120;6.772;2023-10-13T02:09:07;17.83;;;8.77;;
5774;SDS011;2913;51.120;6.772;2023-10-13T02:11:43;22.10;;;9.70;;
5774;SDS011;2913;51.120;6.772;2023-10-13T02:14:12;19.92;;;9.35;;
5774;SDS011;2913;51.120;6.772;2023-10-13T02:16:41;27.27;;;9.82;;
5774;SDS011;2913;51.120;6.772;2023-10-13T02:19:07;20.77;;;9.40;;
5774;SDS011;2913;51.120;6.772;2023-10-13T02:24:08;16.02;;;8.48;;
5774;SDS011;2913;51.120;6.772;2023-10-13T02:26:45;22.75;;;9.32;;
5774;SDS011;2913;51.120;6.772;2023-10-13T02:29:15;20.67;;;9.02;;
5774;SDS011;2913;51.120;6.772;2023-10-13T02:31:43;25.42;;;10.05;;
5774;SDS011;2913;51.120;6.772;2023-10-13T02:34:19;21.55;;;9.38;;
5774;SDS011;2913;51.120;6.772;2023-10-13T02:36:47;21.83;;;10.45;;
5774;SDS011;2913;51.120;6.772;2023-10-13T02:39:16;21.73;;;10.98;;
5774;SDS011;2913;51.120;6.772;2023-10-13T02:41:42;20.60;;;8.93;;
5774;SDS011;2913;51.120;6.772;2023-10-13T02:44:15;21.77;;;10.00;;
5774;SDS011;2913;51.120;6.772;2023-10-13T02:46:55;19.92;;;9.75;;
5774;SDS011;2913;51.120;6.772;2023-10-13T02:49:27;27.58;;;10.05;;
5774;SDS011;2913;51.120;6.772;2023-10-13T02:51:56;21.60;;;9.57;;
5774;SDS011;2913;51.120;6.772;2023-10-13T02:54:23;21.98;;;9.98;;
5774;SDS011;2913;51.120;6.772;2023-10-13T02:56:55;19.58;;;9.43;;
5774;SDS011;2913;51.120;6.772;2023-10-13T02:59:28;33.25;;;10.43;;
5774;SDS011;2913;51.120;6.772;2023-10-13T03:02:16;21.83;;;10.60;;
5774;SDS011;2913;51.120;6.772;2023-10-13T03:04:55;19.83;;;9.80;;
5774;SDS011;2913;51.120;6.772;2023-10-13T03:07:27;22.88;;;10.02;;
5774;SDS011;2913;51.120;6.772;2023-10-13T03:09:56;19.50;;;8.98;;
5774;SDS011;2913;51.120;6.772;2023-10-13T03:12:26;25.35;;;10.40;;
5774;SDS011;2913;51.120;6.772;2023-10-13T03:14:58;25.40;;;9.90;;
5774;SDS011;2913;51.120;6.772;2023-10-13T03:17:37;26.48;;;9.65;;
5774;SDS011;2913;51.120;6.772;2023-10-13T03:20:08;18.30;;;9.75;;
5774;SDS011;2913;51.120;6.772;2023-10-13T03:22:47;28.70;;;10.25;;
5774;SDS011;2913;51.120;6.772;2023-10-13T03:25:17;25.08;;;10.57;;
5774;SDS011;2913;51.120;6.772;2023-10-13T03:27:49;23.45;;;10.40;;
5774;SDS011;2913;51.120;6.772;2023-10-13T03:30:16;21.08;;;10.20;;
5774;SDS011;2913;51.120;6.772;2023-10-13T03:32:46;22.13;;;10.63;;
5774;SDS011;2913;51.120;6.772;2023-10-13T03:35:18;23.30;;;9.73;;
5774;SDS011;2913;51.120;6.772;2023-10-13T03:37:54;22.65;;;10.40;;
5774;SDS011;2913;51.120;6.772;2023-10-13T03:40:20;30.95;;;10.77;;
5774;SDS011;2913;51.120;6.772;2023-10-13T03:42:50;30.55;;;11.27;;
5774;SDS011;2913;51.120;6.772;2023-10-13T03:53:31;20.75;;;11.15;;
5774;SDS011;2913;51.120;6.772;2023-10-13T03:56:17;28.05;;;10.95;;
5774;SDS011;2913;51.120;6.772;2023-10-13T03:59:06;29.92;;;11.00;;
5774;SDS011;2913;51.120;6.772;2023-10-13T04:01:43;28.02;;;11.32;;
5774;SDS011;2913;51.120;6.772;2023-10-13T04:04:27;24.73;;;10.65;;
5774;SDS011;2913;51.120;6.772;2023-10-13T04:07:00;26.38;;;10.77;;
5774;SDS011;2913;51.120;6.772;2023-10-13T04:09:32;24.42;;;10.98;;
5774;SDS011;2913;51.120;6.772;2023-10-13T04:12:12;24.52;;;10.43;;
5774;SDS011;2913;51.120;6.772;2023-10-13T04:14:42;22.42;;;10.45;;
5774;SDS011;2913;51.120;6.772;2023-10-13T04:17:11;26.23;;;11.50;;
5774;SDS011;2913;51.120;6.772;2023-10-13T04:19:40;22.08;;;10.40;;
5774;SDS011;2913;51.120;6.772;2023-10-13T04:22:25;34.85;;;10.93;;
5774;SDS011;2913;51.120;6.772;2023-10-13T04:25:27;30.08;;;10.88;;
5774;SDS011;2913;51.120;6.772;2023-10-13T04:28:12;30.20;;;11.02;;
5774;SDS011;2913;51.120;6.772;2023-10-13T04:33:29;25.73;;;10.80;;
5774;SDS011;2913;51.120;6.772;2023-10-13T04:38:52;21.45;;;9.02;;
5774;SDS011;2913;51.120;6.772;2023-10-13T04:44:01;24.23;;;8.90;;
5774;SDS011;2913;51.120;6.772;2023-10-13T04:46:30;22.42;;;10.43;;
5774;SDS011;2913;51.120;6.772;2023-10-13T04:49:13;30.90;;;11.05;;
5774;SDS011;2913;51.120;6.772;2023-10-13T04:52:03;23.48;;;10.40;;
5774;SDS011;2913;51.120;6.772;2023-10-13T04:54:36;24.85;;;9.85;;
5774;SDS011;2913;51.120;6.772;2023-10-13T04:57:19;29.73;;;10.00;;
5774;SDS011;2913;51.120;6.772;2023-10-13T04:59:49;22.20;;;8.20;;
5774;SDS011;2913;51.120;6.772;2023-10-13T05:02:34;20.88;;;9.18;;
5774;SDS011;2913;51.120;6.772;2023-10-13T05:05:04;25.92;;;9.60;;
5774;SDS011;2913;51.120;6.772;2023-10-13T05:07:40;25.02;;;9.65;;
5774;SDS011;2913;51.120;6.772;2023-10-13T05:10:27;66.15;;;29.90;;
5774;SDS011;2913;51.120;6.772;2023-10-13T05:13:12;22.63;;;11.50;;
5774;SDS011;2913;51.120;6.772;2023-10-13T05:15:56;25.60;;;11.63;;
5774;SDS011;2913;51.120;6.772;2023-10-13T05:18:40;29.60;;;10.93;;
5774;SDS011;2913;51.120;6.772;2023-10-13T05:21:24;20.05;;;10.45;;
5774;SDS011;2913;51.120;6.772;2023-10-13T05:24:08;22.48;;;11.50;;
5774;SDS011;2913;51.120;6.772;2023-10-13T05:26:52;22.83;;;10.32;;
5774;SDS011;2913;51.120;6.772;2023-10-13T05:29:44;20.85;;;10.23;;
5774;SDS011;2913;51.120;6.772;2023-10-13T05:32:29;25.05;;;9.38;;
5774;SDS011;2913;51.120;6.772;2023-10-13T05:35:14;21.83;;;10.20;;
5774;SDS011;2913;51.120;6.772;2023-10-13T05:37:59;27.50;;;9.43;;
5774;SDS011;2913;51.120;6.772;2023-10-13T05:43:46;26.80;;;10.93;;
5774;SDS011;2913;51.120;6.772;2023-10-13T05:46:31;23.63;;;9.85;;
5774;SDS011;2913;51.120;6.772;2023-10-13T05:49:06;22.80;;;9.60;;
5774;SDS011;2913;51.120;6.772;2023-10-13T05:51:42;20.10;;;9.68;;
5774;SDS011;2913;51.120;6.772;2023-10-13T05:54:25;23.38;;;10.20;;
5774;SDS011;2913;51.120;6.772;2023-10-13T05:57:09;30.45;;;11.00;;
5774;SDS011;2913;51.120;6.772;2023-10-13T06:00:01;24.40;;;11.13;;
5774;SDS011;2913;51.120;6.772;2023-10-13T06:02:45;21.75;;;9.70;;
5774;SDS011;2913;51.120;6.772;2023-10-13T06:05:29;28.33;;;9.70;;
5774;SDS011;2913;51.120;6.772;2023-10-13T06:08:13;28.58;;;10.32;;
5774;SDS011;2913;51.120;6.772;2023-10-13T06:11:03;28.98;;;10.85;;
5774;SDS011;2913;51.120;6.772;2023-10-13T06:13:50;21.75;;;9.48;;
5774;SDS011;2913;51.120;6.772;2023-10-13T06:16:34;21.10;;;9.95;;
5774;SDS011;2913;51.120;6.772;2023-10-13T06:19:20;26.77;;;9.52;;
5774;SDS011;2913;51.120;6.772;2023-10-13T06:22:04;26.20;;;8.63;;
5774;SDS011;2913;51.120;6.772;2023-10-13T06:24:48;717.00;;;201.77;;
5774;SDS011;2913;51.120;6.772;2023-10-13T06:27:35;1999.90;;;557.33;;
5774;SDS011;2913;51.120;6.772;2023-10-13T06:30:19;1684.53;;;434.15;;
5774;SDS011;2913;51.120;6.772;2023-10-13T06:32:45;1999.90;;;732.00;;
5774;SDS011;2913;51.120;6.772;2023-10-13T06:35:15;1999.90;;;582.85;;
5774;SDS011;2913;51.120;6.772;2023-10-13T06:37:52;1990.78;;;522.90;;
5774;SDS011;2913;51.120;6.772;2023-10-13T06:40:18;1526.57;;;404.15;;
5774;SDS011;2913;51.120;6.772;2023-10-13T06:42:58;1999.90;;;667.15;;
5774;SDS011;2913;51.120;6.772;2023-10-13T06:45:37;1999.90;;;664.60;;
5774;SDS011;2913;51.120;6.772;2023-10-13T06:48:06;1999.90;;;663.83;;
5774;SDS011;2913;51.120;6.772;2023-10-13T06:53:06;1999.90;;;596.40;;
5774;SDS011;2913;51.120;6.772;2023-10-13T06:55:32;1999.90;;;602.13;;
5774;SDS011;2913;51.120;6.772;2023-10-13T06:58:04;1999.90;;;564.13;;
5774;SDS011;2913;51.120;6.772;2023-10-13T07:00:41;1831.95;;;470.45;;
5774;SDS011;2913;51.120;6.772;2023-10-13T07:03:17;1934.78;;;499.92;;
5774;SDS011;2913;51.120;6.772;2023-10-13T07:05:52;1999.90;;;680.38;;
5774;SDS011;2913;51.120;6.772;2023-10-13T07:08:18;1999.90;;;644.30;;
5774;SDS011;2913;51.120;6.772;2023-10-13T07:13:17;1999.90;;;644.53;;
5774;SDS011;2913;51.120;6.772;2023-10-13T07:15:44;1999.90;;;620.28;;
5774;SDS011;2913;51.120;6.772;2023-10-13T07:18:14;1999.90;;;650.10;;
5774;SDS011;2913;51.120;6.772;2023-10-13T07:20:42;1999.90;;;687.17;;
5774;SDS011;2913;51.120;6.772;2023-10-13T07:23:13;1999.90;;;768.33;;
5774;SDS011;2913;51.120;6.772;2023-10-13T07:25:52;1999.90;;;805.97;;
5774;SDS011;2913;51.120;6.772;2023-10-13T07:28:28;1999.90;;;811.92;;
5774;SDS011;2913;51.120;6.772;2023-10-13T07:30:58;1999.90;;;816.88;;
5774;SDS011;2913;51.120;6.772;2023-10-13T07:33:26;1999.90;;;819.40;;
5774;SDS011;2913;51.120;6.772;2023-10-13T07:36:02;1999.90;;;825.80;;
5774;SDS011;2913;51.120;6.772;2023-10-13T07:38:50;1999.90;;;833.05;;
5774;SDS011;2913;51.120;6.772;2023-10-13T07:41:36;1999.90;;;840.63;;
5774;SDS011;2913;51.120;6.772;2023-10-13T07:44:07;1999.90;;;850.65;;
5774;SDS011;2913;51.120;6.772;2023-10-13T07:46:35;1999.90;;;856.17;;
5774;SDS011;2913;51.120;6.772;2023-10-13T07:49:00;1999.90;;;888.17;;
5774;SDS011;2913;51.120;6.772;2023-10-13T07:51:37;1999.90;;;904.75;;
5774;SDS011;2913;51.120;6.772;2023-10-13T07:54:10;1999.90;;;908.67;;
5774;SDS011;2913;51.120;6.772;2023-10-13T07:56:46;1999.90;;;918.25;;
5774;SDS011;2913;51.120;6.772;2023-10-13T07:59:12;1999.90;;;921.08;;
5774;SDS011;2913;51.120;6.772;2023-10-13T08:01:40;1999.90;;;932.60;;
5774;SDS011;2913;51.120;6.772;2023-10-13T08:04:09;1999.90;;;929.90;;
5774;SDS011;2913;51.120;6.772;2023-10-13T08:06:37;1999.90;;;946.30;;
5774;SDS011;2913;51.120;6.772;2023-10-13T08:09:05;1999.90;;;949.90;;
5774;SDS011;2913;51.120;6.772;2023-10-13T08:11:37;1999.90;;;950.03;;
5774;SDS011;2913;51.120;6.772;2023-10-13T08:14:08;1999.90;;;955.72;;
5774;SDS011;2913;51.120;6.772;2023-10-13T08:16:37;1999.90;;;969.25;;
5774;SDS011;2913;51.120;6.772;2023-10-13T08:19:27;1999.90;;;969.60;;
5774;SDS011;2913;51.120;6.772;2023-10-13T08:21:54;1999.90;;;976.35;;
5774;SDS011;2913;51.120;6.772;2023-10-13T08:24:27;1999.90;;;981.65;;
5774;SDS011;2913;51.120;6.772;2023-10-13T08:26:53;1999.90;;;989.45;;
5774;SDS011;2913;51.120;6.772;2023-10-13T08:29:37;1999.90;;;999.35;;
5774;SDS011;2913;51.120;6.772;2023-10-13T08:32:29;1999.90;;;996.33;;
5774;SDS011;2913;51.120;6.772;2023-10-13T08:37:21;1999.90;;;999.90;;
5774;SDS011;2913;51.120;6.772;2023-10-13T08:39:50;1999.90;;;999.90;;
5774;SDS011;2913;51.120;6.772;2023-10-13T08:42:29;1999.90;;;999.90;;
5774;SDS011;2913;51.120;6.772;2023-10-13T08:48:06;1999.90;;;999.90;;
5774;SDS011;2913;51.120;6.772;2023-10-13T11:43:31;1999.90;;;955.40;;
5774;SDS011;2913;51.120;6.772;2023-10-13T11:46:00;1999.90;;;956.10;;
5774;SDS011;2913;51.120;6.772;2023-10-13T11:48:39;1999.90;;;943.50;;
5774;SDS011;2913;51.120;6.772;2023-10-13T11:58:42;1999.90;;;959.35;;
5774;SDS011;2913;51.120;6.772;2023-10-13T12:01:08;1999.90;;;933.85;;
5774;SDS011;2913;51.120;6.772;2023-10-13T12:08:47;1999.90;;;971.70;;
5774;SDS011;2913;51.120;6.772;2023-10-13T12:11:17;1999.90;;;963.35;;
5774;SDS011;2913;51.120;6.772;2023-10-13T12:13:55;1999.90;;;936.22;;
5774;SDS011;2913;51.120;6.772;2023-10-13T12:16:21;1999.90;;;932.77;;
5774;SDS011;2913;51.120;6.772;2023-10-13T12:18:47;1999.90;;;893.90;;
5774;SDS011;2913;51.120;6.772;2023-10-13T12:21:18;1999.90;;;923.95;;
5774;SDS011;2913;51.120;6.772;2023-10-13T12:23:46;1999.90;;;919.25;;
5774;SDS011;2913;51.120;6.772;2023-10-13T12:26:12;1999.90;;;683.07;;
5774;SDS011;2913;51.120;6.772;2023-10-13T12:28:44;1999.90;;;890.30;;
5774;SDS011;2913;51.120;6.772;2023-10-13T12:33:42;1999.90;;;928.30;;
5774;SDS011;2913;51.120;6.772;2023-10-13T12:36:12;1999.90;;;852.70;;
5774;SDS011;2913;51.120;6.772;2023-10-13T12:38:38;1999.90;;;778.80;;
5774;SDS011;2913;51.120;6.772;2023-10-13T12:41:18;1999.90;;;851.50;;
5774;SDS011;2913;51.120;6.772;2023-10-13T12:44:05;1999.90;;;741.20;;
5774;SDS011;2913;51.120;6.772;2023-10-13T12:46:50;1999.90;;;741.35;;
5774;SDS011;2913;51.120;6.772;2023-10-13T12:49:35;1999.90;;;321.90;;
5774;SDS011;2913;51.120;6.772;2023-10-13T12:52:07;1999.90;;;440.20;;
5774;SDS011;2913;51.120;6.772;2023-10-13T12:54:45;1999.90;;;380.65;;
5774;SDS011;2913;51.120;6.772;2023-10-13T12:57:15;1999.90;;;357.45;;
5774;SDS011;2913;51.120;6.772;2023-10-13T12:59:43;1999.90;;;299.75;;
5774;SDS011;2913;51.120;6.772;2023-10-13T13:02:09;1999.90;;;363.50;;
5774;SDS011;2913;51.120;6.772;2023-10-13T13:12:07;1999.90;;;666.40;;
5774;SDS011;2913;51.120;6.772;2023-10-13T13:19:33;1999.90;;;360.10;;
5774;SDS011;2913;51.120;6.772;2023-10-13T13:22:04;1999.90;;;313.90;;
5774;SDS011;2913;51.120;6.772;2023-10-13T13:24:37;1999.90;;;298.30;;
5774;SDS011;2913;51.120;6.772;2023-10-13T13:27:14;1999.90;;;278.70;;
5774;SDS011;2913;51.120;6.772;2023-10-13T13:29:44;1999.90;;;288.50;;
5774;SDS011;2913;51.120;6.772;2023-10-13T13:32:10;1999.90;;;280.70;;
5774;SDS011;2913;51.120;6.772;2023-10-13T13:37:20;1999.90;;;273.90;;
5774;SDS011;2913;51.120;6.772;2023-10-13T13:44:42;1999.90;;;319.40;;
5774;SDS011;2913;51.120;6.772;2023-10-13T13:57:00;1999.90;;;268.60;;
5774;SDS011;2913;51.120;6.772;2023-10-13T14:01:51;1999.90;;;255.40;;
5774;SDS011;2913;51.120;6.772;2023-10-13T14:04:20;1931.15;;;289.40;;
5774;SDS011;2913;51.120;6.772;2023-10-13T14:54:20;1999.90;;;282.00;;
5774;SDS011;2913;51.120;6.772;2023-10-13T15:04:29;1994.90;;;287.80;;
5774;SDS011;2913;51.120;6.772;2023-10-13T15:09:24;1812.60;;;256.50;;
5774;SDS011;2913;51.120;6.772;2023-10-13T15:16:47;1392.40;;;196.60;;
5774;SDS011;2913;51.120;6.772;2023-10-13T15:19:16;1959.90;;;260.50;;
5774;SDS011;2913;51.120;6.772;2023-10-13T15:29:13;1980.80;;;289.30;;
5774;SDS011;2913;51.120;6.772;2023-10-13T15:31:41;900.10;;;108.40;;
5774;SDS011;2913;51.120;6.772;2023-10-13T15:34:18;1999.90;;;785.53;;
5774;SDS011;2913;51.120;6.772;2023-10-13T15:36:48;1999.90;;;824.67;;
5774;SDS011;2913;51.120;6.772;2023-10-13T15:39:17;1999.90;;;973.25;;
